createdAt,value
2022-09-25T00:02:00.397Z,82.47
2022-09-25T00:04:31.643Z,82.44
2022-09-25T00:07:02.150Z,81.89
2022-09-25T00:09:32.838Z,81.59
2022-09-25T00:12:03.527Z,81.68
2022-09-25T00:14:33.841Z,81.29
2022-09-25T00:17:04.233Z,81.90
2022-09-25T00:19:52.644Z,81.99
2022-09-25T00:22:26.266Z,82.00
2022-09-25T00:24:57.985Z,82.09
2022-09-25T00:27:28.379Z,81.87
2022-09-25T00:29:59.841Z,81.32
2022-09-25T00:32:30.927Z,80.97
2022-09-25T00:35:01.583Z,80.68
2022-09-25T00:37:37.036Z,80.39
2022-09-25T00:40:08.196Z,80.36
2022-09-25T00:42:38.685Z,80.04
2022-09-25T00:45:12.248Z,80.14
2022-09-25T00:47:57.886Z,80.64
2022-09-25T00:50:49.491Z,80.09
2022-09-25T00:53:28.111Z,79.75
2022-09-25T00:56:00.344Z,79.24
2022-09-25T00:58:33.709Z,79.33
2022-09-25T01:01:04.475Z,79.43
2022-09-25T01:03:35.835Z,78.75
2022-09-25T01:06:06.581Z,78.68
2022-09-25T01:08:37.764Z,78.71
2022-09-25T01:11:08.502Z,78.76
2022-09-25T01:13:39.078Z,79.11
2022-09-25T01:16:18.501Z,79.44
2022-09-25T01:18:52.375Z,78.81
2022-09-25T01:21:40.125Z,79.04
2022-09-25T01:24:38.492Z,79.62
2022-09-25T01:27:33.755Z,79.20
2022-09-25T01:30:18.248Z,77.50
2022-09-25T01:32:54.261Z,78.41
2022-09-25T01:35:39.381Z,77.36
2022-09-25T01:38:36.810Z,76.61
2022-09-25T01:41:12.999Z,76.89
2022-09-25T01:43:46.448Z,76.79
2022-09-25T01:46:22.752Z,75.80
2022-09-25T01:48:56.424Z,75.86
2022-09-25T01:51:29.879Z,75.32
2022-09-25T01:54:03.407Z,75.29
2022-09-25T01:56:39.694Z,74.91
2022-09-25T01:59:13.182Z,74.77
2022-09-25T02:01:45.851Z,74.52
2022-09-25T02:04:25.508Z,74.78
2022-09-25T02:06:58.906Z,74.83
2022-09-25T02:09:35.201Z,74.78
2022-09-25T02:12:14.408Z,75.02
2022-09-25T02:14:48.099Z,74.78
2022-09-25T02:17:23.239Z,74.78
2022-09-25T02:20:11.181Z,74.81
2022-09-25T02:22:41.810Z,74.39
2022-09-25T02:25:16.997Z,74.67
2022-09-25T02:27:47.838Z,73.94
2022-09-25T02:30:18.554Z,73.92
2022-09-25T02:32:48.935Z,73.92
2022-09-25T02:35:19.416Z,73.91
2022-09-25T02:37:49.822Z,73.70
2022-09-25T02:40:22.929Z,72.89
2022-09-25T02:43:08.247Z,73.67
2022-09-25T02:45:44.741Z,73.70
2022-09-25T02:48:37.574Z,73.55
2022-09-25T02:51:25.984Z,73.72
2022-09-25T02:54:11.447Z,74.09
2022-09-25T02:56:44.994Z,74.09
2022-09-25T02:59:20.992Z,74.19
2022-09-25T03:01:52.584Z,74.32
2022-09-25T03:04:24.534Z,73.64
2022-09-25T03:06:55.769Z,74.32
2022-09-25T03:09:27.450Z,74.05
2022-09-25T03:11:57.840Z,74.19
2022-09-25T03:14:28.629Z,74.21
2022-09-25T03:17:03.570Z,73.82
2022-09-25T03:19:34.859Z,73.34
2022-09-25T03:22:05.618Z,73.61
2022-09-25T03:24:36.902Z,72.47
2022-09-25T03:27:07.304Z,72.60
2022-09-25T03:29:37.675Z,73.29
2022-09-25T03:32:07.986Z,73.26
2022-09-25T03:34:38.286Z,73.26
2022-09-25T03:37:08.775Z,72.97
2022-09-25T03:39:39.143Z,73.34
2022-09-25T03:42:09.461Z,73.63
2022-09-25T03:44:39.821Z,74.33
2022-09-25T03:47:10.143Z,73.68
2022-09-25T03:49:40.605Z,74.00
2022-09-25T03:52:12.738Z,74.15
2022-09-25T03:54:43.793Z,74.33
2022-09-25T03:57:14.966Z,74.02
2022-09-25T03:59:45.347Z,74.49
2022-09-25T04:02:15.939Z,74.01
2022-09-25T04:04:46.460Z,74.14
2022-09-25T04:07:16.887Z,74.16
2022-09-25T04:09:47.280Z,74.50
2022-09-25T04:12:17.933Z,74.48
2022-09-25T04:14:48.421Z,74.21
2022-09-25T04:17:18.878Z,74.96
2022-09-25T04:19:49.230Z,74.99
2022-09-25T04:22:19.539Z,75.24
2022-09-25T04:24:49.911Z,75.35
2022-09-25T04:27:22.945Z,75.20
2022-09-25T04:29:53.355Z,73.89
2022-09-25T04:32:41.304Z,74.36
2022-09-25T04:35:11.878Z,74.60
2022-09-25T04:37:42.216Z,74.54
2022-09-25T04:40:12.618Z,74.91
2022-09-25T04:42:43.695Z,75.14
2022-09-25T04:45:14.823Z,74.94
2022-09-25T04:47:45.332Z,74.82
2022-09-25T04:50:15.883Z,75.03
2022-09-25T04:52:46.283Z,75.44
2022-09-25T04:55:16.943Z,75.41
2022-09-25T04:57:58.767Z,75.25
2022-09-25T05:00:26.312Z,75.63
2022-09-25T05:02:57.235Z,75.98
2022-09-25T05:05:28.305Z,76.14
2022-09-25T05:08:01.299Z,76.44
2022-09-25T05:10:35.963Z,75.73
2022-09-25T05:13:09.483Z,75.78
2022-09-25T05:15:39.862Z,76.15
2022-09-25T05:18:18.834Z,76.21
2022-09-25T05:20:50.177Z,76.60
2022-09-25T05:23:20.887Z,76.50
2022-09-25T05:25:57.084Z,76.96
2022-09-25T05:28:28.425Z,76.91
2022-09-25T05:31:04.176Z,76.91
2022-09-25T05:33:36.011Z,76.89
2022-09-25T05:36:08.029Z,77.26
2022-09-25T05:38:40.383Z,77.65
2022-09-25T05:41:11.861Z,77.61
2022-09-25T05:43:44.456Z,77.17
2022-09-25T05:46:16.158Z,77.06
2022-09-25T05:48:46.561Z,77.14
2022-09-25T05:51:16.885Z,77.15
2022-09-25T05:53:47.595Z,77.55
2022-09-25T05:56:18.018Z,77.20
2022-09-25T05:58:49.246Z,76.97
2022-09-25T06:01:20.889Z,77.10
2022-09-25T06:03:51.390Z,77.72
2022-09-25T06:06:26.722Z,77.88
2022-09-25T06:08:55.593Z,77.41
2022-09-25T06:11:27.163Z,77.99
2022-09-25T06:13:57.716Z,77.49
2022-09-25T06:16:28.386Z,75.83
2022-09-25T06:18:58.866Z,75.83
2022-09-25T06:21:29.196Z,72.99
2022-09-25T06:23:59.517Z,74.07
2022-09-25T06:26:29.923Z,73.20
2022-09-25T06:29:03.242Z,72.64
2022-09-25T06:31:32.970Z,72.01
2022-09-25T06:34:04.302Z,72.00
2022-09-25T06:36:34.820Z,72.38
2022-09-25T06:39:05.767Z,71.71
2022-09-25T06:41:36.714Z,72.58
2022-09-25T06:44:08.746Z,72.05
2022-09-25T06:46:39.193Z,71.60
2022-09-25T06:49:09.531Z,71.79
2022-09-25T06:51:40.136Z,71.80
2022-09-25T06:54:10.616Z,71.95
2022-09-25T06:56:41.253Z,72.69
2022-09-25T06:59:11.619Z,72.44
2022-09-25T07:01:42.036Z,72.66
2022-09-25T07:04:13.445Z,72.51
2022-09-25T07:06:44.041Z,72.36
2022-09-25T07:09:14.448Z,72.46
2022-09-25T07:11:46.506Z,72.26
2022-09-25T07:14:16.833Z,72.94
2022-09-25T07:16:47.166Z,72.33
2022-09-25T07:19:17.591Z,72.57
2022-09-25T07:21:48.071Z,72.01
2022-09-25T07:24:18.418Z,72.56
2022-09-25T07:26:48.846Z,71.32
2022-09-25T07:29:19.657Z,71.00
2022-09-25T07:31:50.430Z,71.08
2022-09-25T07:34:20.759Z,70.17
2022-09-25T07:36:52.909Z,69.80
2022-09-25T07:39:23.339Z,69.74
2022-09-25T07:41:55.882Z,69.55
2022-09-25T07:44:33.630Z,69.82
2022-09-25T07:46:59.169Z,69.28
2022-09-25T07:49:29.694Z,69.91
2022-09-25T07:52:00.176Z,69.28
2022-09-25T07:54:30.581Z,69.48
2022-09-25T07:57:00.983Z,70.10
2022-09-25T07:59:31.535Z,70.32
2022-09-25T08:02:02.969Z,70.25
2022-09-25T08:04:33.313Z,68.89
2022-09-25T08:07:03.618Z,69.22
2022-09-25T08:09:33.938Z,69.56
2022-09-25T08:12:04.391Z,68.86
2022-09-25T08:14:34.705Z,69.06
2022-09-25T08:17:05.232Z,69.27
2022-09-25T08:19:37.003Z,67.86
2022-09-25T08:22:07.314Z,67.83
2022-09-25T08:24:37.961Z,66.18
2022-09-25T08:27:08.498Z,66.87
2022-09-25T08:29:38.849Z,65.71
2022-09-25T08:32:09.635Z,65.48
2022-09-25T08:34:42.063Z,64.90
2022-09-25T08:37:12.565Z,65.22
2022-09-25T08:39:43.165Z,65.35
2022-09-25T08:42:17.036Z,65.61
2022-09-25T08:45:16.664Z,64.65
2022-09-25T08:47:45.408Z,64.55
2022-09-25T08:50:24.618Z,64.26
2022-09-25T08:52:58.047Z,64.27
2022-09-25T08:55:52.651Z,65.02
2022-09-25T08:58:28.504Z,64.89
2022-09-25T09:01:10.276Z,65.39
2022-09-25T09:03:46.710Z,65.38
2022-09-25T09:06:19.328Z,65.03
2022-09-25T09:09:08.081Z,64.98
2022-09-25T09:11:44.954Z,64.13
2022-09-25T09:14:18.787Z,63.99
2022-09-25T09:17:06.688Z,64.66
2022-09-25T09:19:38.193Z,64.85
2022-09-25T09:22:13.129Z,64.05
2022-09-25T09:25:01.516Z,63.47
2022-09-25T09:27:47.307Z,63.53
2022-09-25T09:30:26.532Z,62.84
2022-09-25T09:33:18.220Z,62.73
2022-09-25T09:35:54.450Z,63.15
2022-09-25T09:38:46.176Z,63.14
2022-09-25T09:41:29.181Z,61.98
2022-09-25T09:44:05.280Z,61.13
2022-09-25T09:46:56.804Z,60.88
2022-09-25T09:49:42.290Z,61.19
2022-09-25T09:52:17.234Z,61.64
2022-09-25T09:55:02.356Z,61.57
2022-09-25T09:57:38.884Z,62.98
2022-09-25T10:00:18.283Z,61.40
2022-09-25T10:03:00.916Z,61.14
2022-09-25T10:05:34.764Z,61.42
2022-09-25T10:08:05.598Z,61.17
2022-09-25T10:10:41.892Z,60.84
2022-09-25T10:13:36.112Z,61.20
2022-09-25T10:16:21.988Z,61.41
2022-09-25T10:19:07.115Z,61.27
2022-09-25T10:21:52.785Z,61.45
2022-09-25T10:24:53.524Z,61.73
2022-09-25T10:27:42.747Z,60.88
2022-09-25T10:30:17.951Z,60.71
2022-09-25T10:32:57.061Z,59.84
2022-09-25T10:35:26.399Z,58.41
2022-09-25T10:37:59.845Z,57.77
2022-09-25T10:40:38.772Z,57.62
2022-09-25T10:43:29.957Z,57.42
2022-09-25T10:46:13.979Z,58.47
2022-09-25T10:49:04.343Z,57.71
2022-09-25T10:51:34.729Z,58.43
2022-09-25T10:54:13.806Z,58.46
2022-09-25T10:56:44.314Z,58.45
2022-09-25T10:59:23.073Z,57.51
2022-09-25T11:01:56.133Z,56.81
2022-09-25T11:04:35.601Z,55.91
2022-09-25T11:07:09.659Z,55.55
2022-09-25T11:09:46.875Z,56.42
2022-09-25T11:12:24.852Z,55.56
2022-09-25T11:15:05.574Z,53.83
2022-09-25T11:17:41.324Z,53.34
2022-09-25T11:20:32.652Z,53.34
2022-09-25T11:23:15.639Z,54.06
2022-09-25T11:25:53.640Z,53.85
2022-09-25T11:28:27.103Z,53.86
2022-09-25T11:31:02.071Z,53.55
2022-09-25T11:33:44.598Z,53.71
2022-09-25T11:36:30.127Z,53.42
2022-09-25T11:39:21.560Z,53.55
2022-09-25T11:42:09.735Z,53.28
2022-09-25T11:44:58.523Z,54.53
2022-09-25T11:47:46.660Z,54.24
2022-09-25T11:50:19.092Z,54.23
2022-09-25T11:52:53.527Z,52.95
2022-09-25T11:55:36.450Z,49.82
2022-09-25T11:58:15.768Z,47.90
2022-09-25T12:00:59.695Z,46.22
2022-09-25T12:03:35.643Z,44.90
2022-09-25T12:06:43.925Z,43.41
2022-09-25T12:09:33.914Z,44.12
2022-09-25T12:12:16.862Z,46.77
2022-09-25T12:15:02.344Z,48.55
2022-09-25T12:17:41.364Z,50.45
2022-09-25T12:20:48.303Z,51.39
2022-09-25T12:23:32.890Z,50.82
2022-09-25T12:26:18.021Z,50.90
2022-09-25T12:28:54.270Z,52.07
2022-09-25T12:31:30.535Z,52.49
2022-09-25T12:34:10.014Z,52.16
2022-09-25T12:36:55.437Z,53.04
2022-09-25T12:39:36.479Z,51.91
2022-09-25T12:42:24.684Z,52.36
2022-09-25T12:45:09.414Z,52.70
2022-09-25T12:47:48.742Z,52.77
2022-09-25T12:50:22.188Z,53.43
2022-09-25T12:53:04.339Z,54.23
2022-09-25T12:55:46.457Z,52.92
2022-09-25T12:58:24.262Z,53.26
2022-09-25T13:01:00.592Z,54.41
2022-09-25T13:03:56.845Z,54.06
2022-09-25T13:06:31.147Z,53.89
2022-09-25T13:09:39.488Z,53.73
2022-09-25T13:12:18.428Z,53.88
2022-09-25T13:15:03.890Z,53.99
2022-09-25T13:17:35.076Z,55.14
2022-09-25T13:20:31.874Z,53.64
2022-09-25T13:23:08.459Z,54.12
2022-09-25T13:26:13.682Z,54.23
2022-09-25T13:29:02.204Z,54.83
2022-09-25T13:31:36.628Z,55.35
2022-09-25T13:34:13.503Z,55.59
2022-09-25T13:36:49.850Z,55.12
2022-09-25T13:39:47.003Z,55.01
2022-09-25T13:42:32.258Z,55.64
2022-09-25T13:45:32.512Z,55.27
2022-09-25T13:48:15.717Z,55.75
2022-09-25T13:50:49.866Z,56.23
2022-09-25T13:53:26.387Z,56.78
2022-09-25T13:55:59.911Z,57.21
2022-09-25T13:58:32.985Z,57.11
2022-09-25T14:01:05.519Z,57.58
2022-09-25T14:03:50.085Z,57.78
2022-09-25T14:06:23.623Z,58.91
2022-09-25T14:08:56.597Z,58.53
2022-09-25T14:11:35.120Z,57.95
2022-09-25T14:14:14.641Z,58.70
2022-09-25T14:16:53.820Z,59.04
2022-09-25T14:19:32.232Z,59.77
2022-09-25T14:22:04.990Z,59.42
2022-09-25T14:24:35.417Z,59.37
2022-09-25T14:27:08.812Z,59.62
2022-09-25T14:29:43.113Z,59.83
2022-09-25T14:32:55.959Z,60.20
2022-09-25T14:35:36.718Z,60.69
2022-09-25T14:38:25.285Z,61.31
2022-09-25T14:40:58.759Z,60.31
2022-09-25T14:43:45.090Z,60.64
2022-09-25T14:46:21.441Z,60.38
2022-09-25T14:48:57.933Z,59.74
2022-09-25T14:51:44.985Z,57.71
2022-09-25T14:54:18.715Z,58.18
2022-09-25T14:56:52.248Z,58.54
2022-09-25T14:59:36.249Z,58.66
2022-09-25T15:02:15.808Z,59.34
2022-09-25T15:04:46.799Z,60.01
2022-09-25T15:07:19.470Z,58.93
2022-09-25T15:09:53.244Z,59.42
2022-09-25T15:12:33.920Z,60.41
2022-09-25T15:15:14.084Z,60.49
2022-09-25T15:17:59.617Z,61.05
2022-09-25T15:20:33.058Z,61.52
2022-09-25T15:23:10.298Z,61.88
2022-09-25T15:25:46.539Z,62.01
2022-09-25T15:28:19.844Z,62.57
2022-09-25T15:31:01.426Z,63.03
2022-09-25T15:33:34.338Z,63.67
2022-09-25T15:36:22.576Z,64.52
2022-09-25T15:38:58.201Z,65.21
2022-09-25T15:41:29.945Z,65.11
2022-09-25T15:44:24.281Z,65.91
2022-09-25T15:47:00.622Z,66.63
2022-09-25T15:49:36.956Z,66.02
2022-09-25T15:52:27.171Z,65.82
2022-09-25T15:55:03.058Z,65.91
2022-09-25T15:57:34.274Z,65.61
2022-09-25T16:00:28.962Z,65.52
2022-09-25T16:03:20.480Z,66.09
2022-09-25T16:05:52.480Z,65.34
2022-09-25T16:08:36.890Z,64.62
2022-09-25T16:11:25.159Z,65.03
2022-09-25T16:14:16.374Z,65.17
2022-09-25T16:16:49.710Z,65.83
2022-09-25T16:19:41.618Z,64.67
2022-09-25T16:22:24.166Z,65.03
2022-09-25T16:24:55.501Z,65.34
2022-09-25T16:27:34.653Z,64.80
2022-09-25T16:30:05.423Z,65.09
2022-09-25T16:32:35.944Z,65.40
2022-09-25T16:35:06.770Z,66.35
2022-09-25T16:37:37.536Z,65.39
2022-09-25T16:40:26.011Z,65.78
2022-09-25T16:42:58.683Z,65.81
2022-09-25T16:45:34.504Z,66.12
2022-09-25T16:48:27.506Z,65.84
2022-09-25T16:51:01.255Z,66.21
2022-09-25T16:53:31.722Z,65.85
2022-09-25T16:56:03.137Z,65.94
2022-09-25T16:58:34.186Z,66.36
2022-09-25T17:01:05.153Z,66.44
2022-09-25T17:03:37.238Z,66.41
2022-09-25T17:06:08.010Z,66.75
2022-09-25T17:08:38.407Z,67.54
2022-09-25T17:11:09.283Z,67.07
2022-09-25T17:13:40.802Z,67.50
2022-09-25T17:16:11.809Z,67.88
2022-09-25T17:18:43.113Z,68.17
2022-09-25T17:21:15.965Z,68.69
2022-09-25T17:23:47.277Z,68.41
2022-09-25T17:26:20.373Z,69.08
2022-09-25T17:28:51.602Z,69.57
2022-09-25T17:31:23.666Z,69.62
2022-09-25T17:33:54.147Z,69.73
2022-09-25T17:36:24.544Z,70.30
2022-09-25T17:38:55.006Z,70.53
2022-09-25T17:41:37.290Z,70.60
2022-09-25T17:44:10.860Z,71.15
2022-09-25T17:46:41.259Z,71.42
2022-09-25T17:49:11.752Z,71.92
2022-09-25T17:51:42.392Z,71.91
2022-09-25T17:54:13.440Z,71.81
2022-09-25T17:56:46.332Z,71.93
2022-09-25T17:59:16.819Z,72.19
2022-09-25T18:01:47.336Z,72.53
2022-09-25T18:04:21.477Z,72.37
2022-09-25T18:06:52.713Z,72.27
2022-09-25T18:09:23.160Z,72.69
2022-09-25T18:11:54.626Z,72.59
2022-09-25T18:14:25.912Z,72.56
2022-09-25T18:16:56.246Z,72.61
2022-09-25T18:19:44.737Z,72.16
2022-09-25T18:22:18.978Z,72.38
2022-09-25T18:24:52.581Z,72.19
2022-09-25T18:27:27.366Z,72.10
2022-09-25T18:29:58.343Z,72.20
2022-09-25T18:32:29.729Z,72.52
2022-09-25T18:35:01.984Z,72.22
2022-09-25T18:37:32.890Z,72.55
2022-09-25T18:40:03.581Z,73.12
2022-09-25T18:42:34.346Z,73.56
2022-09-25T18:45:06.020Z,73.76
2022-09-25T18:47:36.404Z,74.00
2022-09-25T18:50:07.875Z,74.51
2022-09-25T18:52:39.245Z,74.73
2022-09-25T18:55:09.685Z,75.19
2022-09-25T18:57:40.815Z,75.27
2022-09-25T19:00:12.444Z,75.62
2022-09-25T19:02:44.006Z,75.67
2022-09-25T19:05:16.153Z,75.80
2022-09-25T19:07:46.662Z,75.78
2022-09-25T19:10:17.112Z,76.23
2022-09-25T19:12:47.855Z,76.23
2022-09-25T19:15:18.473Z,76.49
2022-09-25T19:17:49.245Z,76.62
2022-09-25T19:20:19.632Z,76.92
2022-09-25T19:22:50.036Z,77.05
2022-09-25T19:25:22.752Z,76.98
2022-09-25T19:27:53.085Z,77.17
2022-09-25T19:30:23.666Z,77.12
2022-09-25T19:32:54.071Z,77.18
2022-09-25T19:35:24.365Z,77.09
2022-09-25T19:37:54.715Z,76.62
2022-09-25T19:40:36.514Z,77.15
2022-09-25T19:43:08.059Z,77.26
2022-09-25T19:45:38.390Z,77.37
2022-09-25T19:48:08.784Z,77.53
2022-09-25T19:50:43.333Z,77.47
2022-09-25T19:53:14.160Z,77.59
2022-09-25T19:55:44.558Z,77.61
2022-09-25T19:58:14.926Z,77.64
2022-09-25T20:00:45.258Z,77.72
2022-09-25T20:03:15.677Z,77.89
2022-09-25T20:05:48.082Z,77.90
2022-09-25T20:08:18.806Z,78.10
2022-09-25T20:10:49.299Z,78.30
2022-09-25T20:13:19.734Z,78.14
2022-09-25T20:15:50.103Z,77.94
2022-09-25T20:18:21.340Z,77.70
2022-09-25T20:20:51.736Z,77.96
2022-09-25T20:23:22.118Z,78.36
2022-09-25T20:25:52.429Z,78.25
2022-09-25T20:28:22.847Z,78.59
2022-09-25T20:30:53.292Z,78.56
2022-09-25T20:33:23.913Z,78.81
2022-09-25T20:35:54.318Z,78.94
2022-09-25T20:38:25.082Z,78.41
2022-09-25T20:40:57.258Z,79.05
2022-09-25T20:43:28.438Z,78.99
2022-09-25T20:46:04.336Z,79.25
2022-09-25T20:48:40.569Z,79.05
2022-09-25T20:51:15.513Z,79.06
2022-09-25T20:53:46.821Z,79.51
2022-09-25T20:56:17.386Z,79.55
2022-09-25T20:58:52.868Z,79.72
2022-09-25T21:01:22.766Z,79.77
2022-09-25T21:03:53.852Z,80.19
2022-09-25T21:06:27.804Z,80.08
2022-09-25T21:09:01.087Z,80.14
2022-09-25T21:11:33.102Z,80.34
2022-09-25T21:14:04.162Z,80.20
2022-09-25T21:16:34.673Z,80.31
2022-09-25T21:19:05.597Z,80.05
2022-09-25T21:21:35.976Z,79.91
2022-09-25T21:24:07.171Z,80.27
2022-09-25T21:26:37.525Z,80.71
2022-09-25T21:29:09.593Z,80.79
2022-09-25T21:31:46.622Z,81.06
2022-09-25T21:34:15.881Z,81.27
2022-09-25T21:36:47.570Z,81.09
2022-09-25T21:39:20.744Z,81.41
2022-09-25T21:41:56.317Z,81.62
2022-09-25T21:44:26.928Z,81.48
2022-09-25T21:46:57.806Z,81.88
2022-09-25T21:49:28.171Z,81.69
2022-09-25T21:51:58.497Z,82.00
2022-09-25T21:54:30.525Z,81.56
2022-09-25T21:57:00.951Z,81.85
2022-09-25T21:59:31.737Z,81.60
2022-09-25T22:02:02.129Z,81.76
2022-09-25T22:04:32.509Z,81.60
2022-09-25T22:07:03.065Z,81.64
2022-09-25T22:09:33.637Z,81.33
2022-09-25T22:12:04.267Z,81.58
2022-09-25T22:14:34.674Z,81.59
2022-09-25T22:17:05.146Z,81.39
2022-09-25T22:19:35.550Z,81.53
2022-09-25T22:22:06.101Z,81.65
2022-09-25T22:24:36.417Z,81.47
2022-09-25T22:27:06.808Z,81.42
2022-09-25T22:29:39.812Z,81.49
2022-09-25T22:32:10.219Z,81.56
2022-09-25T22:34:40.673Z,81.61
2022-09-25T22:37:12.631Z,81.86
2022-09-25T22:39:43.639Z,81.86
2022-09-25T22:42:14.137Z,81.76
2022-09-25T22:44:44.688Z,81.71
2022-09-25T22:47:15.065Z,81.86
2022-09-25T22:49:45.375Z,81.88
2022-09-25T22:52:15.864Z,81.91
2022-09-25T22:54:46.199Z,81.91
2022-09-25T22:57:16.577Z,81.85
2022-09-25T22:59:46.878Z,81.63
2022-09-25T23:02:17.274Z,81.38
2022-09-25T23:04:49.459Z,81.42
2022-09-25T23:07:19.971Z,81.35
2022-09-25T23:09:50.712Z,80.91
2022-09-25T23:12:21.182Z,81.00
2022-09-25T23:14:51.484Z,81.21
2022-09-25T23:17:21.874Z,81.34
2022-09-25T23:19:52.255Z,81.21
2022-09-25T23:22:22.649Z,81.30
2022-09-25T23:24:52.985Z,81.24
2022-09-25T23:27:23.308Z,81.30
2022-09-25T23:29:53.742Z,81.21
2022-09-25T23:32:24.154Z,81.17
2022-09-25T23:34:54.530Z,81.34
2022-09-25T23:37:24.917Z,81.20
2022-09-25T23:39:55.887Z,81.18
2022-09-25T23:42:26.687Z,81.03
2022-09-25T23:44:56.990Z,81.08
2022-09-25T23:47:27.422Z,81.12
2022-09-25T23:50:03.508Z,80.75
2022-09-25T23:52:29.988Z,80.67
2022-09-25T23:55:00.236Z,80.63
2022-09-25T23:57:30.630Z,80.52
